Time;durP1;ratioP1;P1;durP2;ratioP2;P2;SDS_P1;SDS_P2;PMS_P1;PMS_P2;Temp;Humidity;BMP_temperature;BMP_pressure;BME280_temperature;BME280_humidity;BME280_pressure;Samples;Min_cycle;Max_cycle;Signal;HPM_P1;HPM_P2
2022/12/03 00:00:29;;;;;;;4.13;2.90;;;;;;;5.85;100.00;101049.44;5087578;28;20404;-71
2022/12/03 00:02:55;;;;;;;6.30;3.50;;;;;;;5.90;100.00;101044.84;5091493;28;20032;-71
2022/12/03 00:05:20;;;;;;;5.57;3.53;;;;;;;5.89;100.00;101033.66;5091133;28;20051;-72
2022/12/03 00:07:45;;;;;;;4.25;2.80;;;;;;;5.86;100.00;101022.66;5091695;28;20379;-71
2022/12/03 00:10:11;;;;;;;4.20;2.55;;;;;;;5.80;100.00;101023.06;5091271;28;20124;-72
2022/12/03 00:12:37;;;;;;;5.30;2.35;;;;;;;5.75;100.00;101018.19;5076431;28;20047;-71
2022/12/03 00:15:03;;;;;;;3.25;2.03;;;;;;;5.82;100.00;101024.63;5093398;28;20034;-73
2022/12/03 00:17:29;;;;;;;4.35;1.83;;;;;;;5.91;100.00;101025.81;5085545;28;20032;-72
2022/12/03 00:19:54;;;;;;;2.42;1.60;;;;;;;5.90;100.00;101029.31;5091238;28;20118;-72
2022/12/03 00:22:20;;;;;;;4.18;1.77;;;;;;;5.90;100.00;101024.16;5090741;28;20044;-73
2022/12/03 00:24:45;;;;;;;3.55;1.88;;;;;;;5.86;100.00;101022.66;5090955;28;20052;-72
2022/12/03 00:27:10;;;;;;;3.65;1.98;;;;;;;5.90;100.00;101022.38;5071779;28;20031;-71
2022/12/03 00:29:36;;;;;;;2.67;1.60;;;;;;;5.93;100.00;101021.34;5093737;28;20356;-72
2022/12/03 00:32:01;;;;;;;2.25;1.38;;;;;;;6.01;100.00;101011.34;5091607;28;20488;-72
2022/12/03 00:34:27;;;;;;;1.95;1.48;;;;;;;6.04;100.00;101021.47;5088769;28;20524;-72
2022/12/03 00:36:52;;;;;;;2.22;1.58;;;;;;;6.09;100.00;101016.84;5091096;28;20387;-71
2022/12/03 00:39:17;;;;;;;2.05;1.35;;;;;;;6.09;100.00;101022.00;5090870;28;20537;-71
2022/12/03 00:41:43;;;;;;;3.42;1.75;;;;;;;6.06;100.00;101011.88;5088902;28;20383;-72
2022/12/03 00:44:10;;;;;;;4.53;2.30;;;;;;;6.01;100.00;101026.03;5093799;28;20020;-72
2022/12/03 00:46:36;;;;;;;4.00;2.05;;;;;;;6.07;100.00;101018.69;5090076;28;20082;-72
2022/12/03 00:49:01;;;;;;;3.83;2.78;;;;;;;6.05;100.00;101028.31;5089503;28;20674;-72
2022/12/03 00:51:27;;;;;;;4.57;2.63;;;;;;;5.95;100.00;101032.44;5090543;28;20673;-71
2022/12/03 00:53:52;;;;;;;6.38;3.38;;;;;;;5.91;100.00;101033.56;5092958;28;20027;-72
2022/12/03 00:56:18;;;;;;;3.85;2.75;;;;;;;5.94;100.00;101025.59;5089906;28;20024;-72
2022/12/03 00:58:43;;;;;;;3.72;2.70;;;;;;;5.95;100.00;101028.09;5085925;28;20059;-72
2022/12/03 01:01:08;;;;;;;4.75;3.05;;;;;;;5.87;100.00;101037.25;5090833;28;20040;-72
2022/12/03 01:03:34;;;;;;;4.68;2.28;;;;;;;5.97;100.00;101040.91;5074423;28;20035;-71
2022/12/03 01:05:59;;;;;;;5.55;4.28;;;;;;;6.02;100.00;101031.09;5092816;28;20439;-72
2022/12/03 01:08:25;;;;;;;5.78;4.72;;;;;;;5.85;100.00;101034.75;5090179;28;20116;-72
2022/12/03 01:10:50;;;;;;;6.35;4.30;;;;;;;5.76;100.00;101037.09;5084169;28;20066;-71
2022/12/03 01:13:16;;;;;;;6.70;4.38;;;;;;;5.73;100.00;101034.72;5084543;28;20131;-72
2022/12/03 01:15:41;;;;;;;9.05;5.25;;;;;;;5.71;100.00;101039.16;5072443;28;20042;-72
2022/12/03 01:18:07;;;;;;;6.85;4.25;;;;;;;5.70;100.00;101032.34;5090168;28;20028;-72
2022/12/03 01:20:32;;;;;;;5.85;3.45;;;;;;;5.70;100.00;101034.91;5071239;28;20398;-71
2022/12/03 01:22:57;;;;;;;4.88;3.58;;;;;;;5.76;100.00;101029.34;5072563;28;20447;-72
2022/12/03 01:25:23;;;;;;;8.80;4.43;;;;;;;5.81;100.00;101046.22;5089050;28;20044;-72
2022/12/03 01:27:49;;;;;;;3.90;2.40;;;;;;;5.92;100.00;101033.47;5090933;28;20045;-72
2022/12/03 01:30:14;;;;;;;4.03;2.30;;;;;;;6.08;100.00;101029.88;5081595;28;20445;-72
2022/12/03 01:32:40;;;;;;;4.07;2.40;;;;;;;6.16;100.00;101031.00;5090584;28;20024;-73
2022/12/03 01:35:05;;;;;;;2.97;1.60;;;;;;;6.20;100.00;101022.09;5094324;28;20121;-72
2022/12/03 01:37:31;;;;;;;1.95;1.50;;;;;;;6.34;100.00;101023.75;5089534;28;20028;-72
2022/12/03 01:39:57;;;;;;;2.05;1.05;;;;;;;6.46;100.00;101019.53;5090371;28;20050;-72
2022/12/03 01:42:29;;;;;;;2.63;1.60;;;;;;;6.45;100.00;101015.28;5093235;28;20071;-72
2022/12/03 01:44:57;;;;;;;2.65;1.50;;;;;;;6.44;100.00;101018.78;5089300;28;20024;-71
2022/12/03 01:47:35;;;;;;;2.80;1.85;;;;;;;6.42;100.00;101008.53;5087413;28;20063;-72
2022/12/03 01:50:05;;;;;;;2.75;1.55;;;;;;;6.40;100.00;101013.00;5088739;28;20028;-72
2022/12/03 01:52:35;;;;;;;2.70;1.80;;;;;;;6.39;100.00;101007.94;5089059;28;20044;-71
2022/12/03 01:55:05;;;;;;;2.55;1.50;;;;;;;6.40;100.00;101005.22;5088591;28;20062;-72
2022/12/03 01:57:42;;;;;;;4.85;2.33;;;;;;;6.38;100.00;101004.50;5088644;28;20019;-72
2022/12/03 02:00:17;;;;;;;3.60;2.20;;;;;;;6.40;100.00;101001.81;5089538;28;20388;-72
2022/12/03 02:02:44;;;;;;;2.50;1.40;;;;;;;6.39;100.00;101000.97;5089957;28;20028;-72
2022/12/03 02:05:25;;;;;;;2.45;1.55;;;;;;;6.35;100.00;100999.53;5089387;28;20025;-72
2022/12/03 02:07:51;;;;;;;3.88;2.30;;;;;;;6.32;100.00;101004.91;5083606;28;20039;-72
2022/12/03 02:10:21;;;;;;;3.25;1.58;;;;;;;6.27;100.00;101001.81;5088733;28;20391;-72
2022/12/03 02:13:09;;;;;;;2.88;1.92;;;;;;;6.19;100.00;101004.91;5091264;28;20390;-72
2022/12/03 02:15:37;;;;;;;1.92;1.38;;;;;;;6.16;100.00;101009.47;5093646;28;20059;-71
2022/12/03 02:18:02;;;;;;;2.03;1.40;;;;;;;6.18;100.00;101013.59;5090696;28;20028;-71
2022/12/03 02:20:32;;;;;;;2.33;1.10;;;;;;;6.35;100.00;101019.41;5088857;28;20032;-72
2022/12/03 02:23:21;;;;;;;3.85;1.30;;;;;;;6.49;100.00;101019.31;5089156;28;20047;-72
2022/12/03 02:25:47;;;;;;;3.63;1.83;;;;;;;6.47;100.00;101029.78;5092652;28;20054;-71
2022/12/03 02:28:12;;;;;;;2.63;1.80;;;;;;;6.36;100.00;101028.84;5093402;28;20028;-71
2022/12/03 02:30:38;;;;;;;2.25;1.33;;;;;;;6.26;100.00;101026.03;5089303;28;20114;-72
2022/12/03 02:33:04;;;;;;;3.65;2.05;;;;;;;6.22;100.00;101020.22;5089324;28;20032;-71
2022/12/03 02:35:33;;;;;;;2.67;1.92;;;;;;;6.20;100.00;101016.09;5089230;28;20035;-72
2022/12/03 02:38:20;;;;;;;3.88;1.95;;;;;;;6.16;100.00;101019.81;5089129;28;20031;-71
2022/12/03 02:40:51;;;;;;;2.90;1.98;;;;;;;6.12;100.00;101014.03;5086428;28;20051;-72
2022/12/03 02:43:19;;;;;;;2.33;1.63;;;;;;;6.11;100.00;101012.38;5090846;28;20040;-71
2022/12/03 02:45:48;;;;;;;3.83;2.15;;;;;;;6.08;100.00;101012.59;5084994;28;20030;-72
2022/12/03 02:48:21;;;;;;;2.13;1.77;;;;;;;6.13;100.00;101013.13;5080679;28;20032;-72
2022/12/03 02:50:53;;;;;;;2.67;1.90;;;;;;;6.18;100.00;101003.25;5079513;28;20024;-72
2022/12/03 02:53:33;;;;;;;2.50;1.77;;;;;;;6.35;100.00;100999.53;5087555;28;20028;-72
2022/12/03 02:56:01;;;;;;;3.00;1.80;;;;;;;6.51;100.00;100999.31;5073209;28;20047;-72
2022/12/03 02:58:29;;;;;;;2.88;2.08;;;;;;;6.49;100.00;101007.19;5090562;28;20054;-72
2022/12/03 03:00:56;;;;;;;2.60;1.67;;;;;;;6.51;100.00;101012.28;5089321;28;20097;-71
2022/12/03 03:03:23;;;;;;;2.90;1.75;;;;;;;6.51;100.00;101009.69;5063138;28;20414;-71
2022/12/03 03:05:49;;;;;;;2.33;1.55;;;;;;;6.56;99.55;101015.38;5091064;28;20475;-73
2022/12/03 03:08:16;;;;;;;2.92;1.98;;;;;;;6.55;100.00;101017.13;5067369;28;20035;-71
2022/12/03 03:10:42;;;;;;;3.00;1.92;;;;;;;6.51;100.00;101020.03;5089178;28;20487;-72
2022/12/03 03:13:11;;;;;;;3.22;1.88;;;;;;;6.48;100.00;101017.66;5091786;28;20087;-71
2022/12/03 03:15:38;;;;;;;2.13;1.80;;;;;;;6.43;100.00;101012.78;5092389;28;20027;-72
2022/12/03 03:18:04;;;;;;;5.60;2.20;;;;;;;6.40;100.00;101012.16;5092601;28;20051;-72
2022/12/03 03:20:30;;;;;;;3.17;1.83;;;;;;;6.42;100.00;101010.31;5092285;28;20028;-72
2022/12/03 03:23:14;;;;;;;4.57;2.25;;;;;;;6.41;100.00;101006.06;5092172;28;20391;-72
2022/12/03 03:25:43;;;;;;;3.55;2.05;;;;;;;6.39;100.00;101011.34;5089613;28;20048;-71
2022/12/03 03:28:10;;;;;;;3.35;1.92;;;;;;;6.39;100.00;101013.94;5088123;28;20048;-72
2022/12/03 03:30:38;;;;;;;2.92;1.88;;;;;;;6.38;100.00;101021.78;5092493;28;20059;-71
2022/12/03 03:33:04;;;;;;;2.75;2.00;;;;;;;6.38;100.00;101025.22;5086565;28;20039;-72
2022/12/03 03:35:29;;;;;;;2.40;1.63;;;;;;;6.42;98.85;101015.47;5098225;28;20039;-71
2022/12/03 03:37:57;;;;;;;3.05;2.33;;;;;;;6.47;99.55;101013.41;5092354;28;20031;-72
2022/12/03 03:40:24;;;;;;;3.08;2.00;;;;;;;6.47;99.67;101009.06;5091312;28;20448;-72
2022/12/03 03:42:49;;;;;;;4.03;2.22;;;;;;;6.50;99.05;101002.84;5096749;28;20508;-71
2022/12/03 03:45:15;;;;;;;2.45;1.85;;;;;;;6.48;98.49;101008.13;5094527;28;20055;-72
2022/12/03 03:47:42;;;;;;;2.58;1.63;;;;;;;6.54;96.23;100997.34;5091863;28;20028;-72
2022/12/03 03:50:09;;;;;;;2.72;1.63;;;;;;;6.57;96.57;101001.50;5084692;28;20048;-72
2022/12/03 03:52:36;;;;;;;3.20;2.22;;;;;;;6.56;96.18;101007.59;5090359;28;20493;-71
2022/12/03 03:55:03;;;;;;;3.70;2.03;;;;;;;6.60;95.15;101011.66;5092240;28;20504;-70
2022/12/03 03:57:28;;;;;;;4.35;2.53;;;;;;;6.71;92.17;101003.94;5092499;28;20031;-71
2022/12/03 03:59:54;;;;;;;3.78;3.13;;;;;;;6.74;93.41;100998.53;5091909;28;20031;-72
2022/12/03 04:02:23;;;;;;;7.10;5.10;;;;;;;6.71;93.96;101009.13;5091645;28;20036;-72
2022/12/03 04:04:49;;;;;;;2.63;1.65;;;;;;;6.62;95.28;101001.97;5091437;28;20028;-72
2022/12/03 04:07:15;;;;;;;2.50;1.77;;;;;;;6.57;95.73;101004.91;5090764;28;20062;-71
2022/12/03 04:09:41;;;;;;;3.13;1.80;;;;;;;6.59;95.65;100999.63;5073709;28;20112;-71
2022/12/03 04:14:50;;;;;;;1.90;1.13;;;;;;;6.51;95.97;101000.16;5091399;28;20161;-72
2022/12/03 04:17:16;;;;;;;2.78;1.75;;;;;;;6.49;96.89;101001.19;5082995;28;20454;-72
2022/12/03 04:19:41;;;;;;;2.47;1.70;;;;;;;6.43;97.18;100999.84;5091303;28;20036;-72
2022/12/03 04:24:51;;;;;;;2.95;2.20;;;;;;;6.32;98.65;100990.22;5086089;28;20055;-72
2022/12/03 04:30:00;;;;;;;6.43;2.45;;;;;;;6.10;100.00;100973.69;5088730;28;20052;-71
2022/12/03 04:37:54;;;;;;;4.57;2.25;;;;;;;6.08;100.00;100978.97;5089850;28;20051;-72
2022/12/03 04:43:03;;;;;;;1.90;1.48;;;;;;;6.26;99.85;100980.28;5090458;28;21959;-72
2022/12/03 04:45:28;;;;;;;3.47;1.70;;;;;;;6.40;98.05;100970.75;5070483;28;20028;-72
2022/12/03 04:47:54;;;;;;;2.40;1.13;;;;;;;6.46;96.64;100971.16;5086476;28;20586;-72
2022/12/03 04:50:20;;;;;;;4.32;1.98;;;;;;;6.53;96.01;100971.56;5090456;28;20039;-72
2022/12/03 04:52:45;;;;;;;4.68;1.38;;;;;;;6.55;97.25;100969.72;5090982;28;20035;-72
2022/12/03 04:55:10;;;;;;;2.17;1.58;;;;;;;6.47;97.35;100972.00;5090218;28;20043;-72
2022/12/03 04:57:36;;;;;;;2.70;1.30;;;;;;;6.48;96.54;100964.13;5089797;28;20405;-72
2022/12/03 05:00:03;;;;;;;3.03;1.60;;;;;;;6.50;96.29;100967.44;5090508;28;20023;-72
2022/12/03 05:02:28;;;;;;;2.53;1.77;;;;;;;6.48;95.83;100963.28;5090075;28;20115;-72
2022/12/03 05:04:54;;;;;;;2.17;1.95;;;;;;;6.42;98.34;100961.13;5089923;28;20566;-72
2022/12/03 05:07:19;;;;;;;3.60;2.42;;;;;;;6.31;99.32;100959.28;5089448;28;20032;-71
2022/12/03 05:09:44;;;;;;;5.20;2.95;;;;;;;6.19;100.00;100968.69;5084025;28;20498;-72
2022/12/03 05:12:10;;;;;;;3.90;2.60;;;;;;;6.01;100.00;100961.38;5095269;28;20556;-72
2022/12/03 05:14:35;;;;;;;2.88;2.08;;;;;;;5.93;100.00;100951.53;5071598;28;20036;-72
2022/12/03 05:17:01;;;;;;;3.90;2.47;;;;;;;5.87;100.00;100959.66;5089613;28;20047;-72
2022/12/03 05:20:40;;;;;;;4.07;2.92;;;;;;;5.82;100.00;100959.13;5087686;28;20508;-72
2022/12/03 05:22:11;;;;;;;3.85;2.30;;;;;;;5.78;100.00;100968.84;5083555;28;20123;-73
2022/12/03 05:24:37;;;;;;;4.43;2.55;;;;;;;5.82;100.00;100966.91;5081657;28;20043;-71
2022/12/03 05:27:03;;;;;;;2.95;2.25;;;;;;;5.89;100.00;100963.00;5082216;28;20028;-72
2022/12/03 05:29:28;;;;;;;2.83;2.10;;;;;;;5.88;100.00;100966.50;5089940;28;20035;-72
2022/12/03 05:31:53;;;;;;;3.03;1.85;;;;;;;5.80;100.00;100963.59;5090269;28;20027;-71
2022/12/03 05:34:19;;;;;;;3.38;2.58;;;;;;;5.75;100.00;100968.22;5088178;28;20044;-71
2022/12/03 05:36:44;;;;;;;4.28;2.92;;;;;;;5.70;100.00;100967.69;5089562;28;20115;-72
2022/12/03 05:39:10;;;;;;;4.50;2.92;;;;;;;5.60;100.00;100965.75;5089617;28;20144;-72
2022/12/03 05:44:19;;;;;;;4.50;2.83;;;;;;;5.59;100.00;100963.25;5091207;28;20124;-72
2022/12/03 05:46:45;;;;;;;4.82;2.95;;;;;;;5.65;100.00;100968.84;5072148;28;20036;-72
2022/12/03 05:49:10;;;;;;;7.30;1.95;;;;;;;5.74;100.00;100977.75;5088104;28;20032;-71
2022/12/03 05:51:35;;;;;;;3.58;2.30;;;;;;;5.78;100.00;100976.59;5093370;28;20036;-71
2022/12/03 05:54:01;;;;;;;6.40;4.03;;;;;;;5.78;100.00;100968.03;5090016;28;20039;-71
2022/12/03 05:56:26;;;;;;;5.85;3.45;;;;;;;5.79;100.00;100964.50;5089799;28;20063;-71
2022/12/03 05:58:52;;;;;;;4.75;2.90;;;;;;;5.78;100.00;100971.44;5090127;28;20028;-72
2022/12/03 06:01:17;;;;;;;3.90;2.58;;;;;;;5.73;100.00;100965.75;5088680;28;20126;-72
2022/12/03 06:03:43;;;;;;;4.03;2.45;;;;;;;5.70;100.00;100971.13;5070315;28;20023;-71
2022/12/03 06:06:08;;;;;;;5.47;1.75;;;;;;;5.73;100.00;100970.09;5089564;28;20364;-71
2022/12/03 06:08:33;;;;;;;4.15;2.50;;;;;;;5.77;100.00;100967.19;5088853;28;20035;-73
2022/12/03 06:10:59;;;;;;;3.83;2.60;;;;;;;5.77;100.00;100971.53;5089539;28;20034;-72
2022/12/03 06:13:24;;;;;;;2.65;1.92;;;;;;;5.74;100.00;100969.16;5088065;28;20047;-72
2022/12/03 06:15:50;;;;;;;4.30;2.45;;;;;;;5.81;100.00;100967.81;5089456;28;20035;-72
2022/12/03 06:18:15;;;;;;;3.85;2.30;;;;;;;5.82;100.00;100972.91;5082293;28;20383;-71
2022/12/03 06:20:40;;;;;;;3.92;2.30;;;;;;;5.79;100.00;100969.69;5087792;28;20554;-72
2022/12/03 06:23:06;;;;;;;2.97;1.83;;;;;;;5.75;100.00;100971.63;5089693;28;20027;-72
2022/12/03 06:25:31;;;;;;;3.03;1.90;;;;;;;5.82;100.00;100962.56;5088445;28;20108;-71
2022/12/03 06:27:57;;;;;;;2.95;1.92;;;;;;;5.85;100.00;100967.53;5092844;28;20031;-71
2022/12/03 06:30:22;;;;;;;3.22;2.20;;;;;;;5.84;100.00;100962.44;5086126;28;20024;-72
2022/12/03 06:32:48;;;;;;;2.92;2.05;;;;;;;5.83;100.00;100956.44;5088556;28;20089;-71
2022/12/03 06:35:13;;;;;;;3.22;2.50;;;;;;;5.84;100.00;100968.44;5087321;28;20047;-72
2022/12/03 06:37:39;;;;;;;4.35;2.92;;;;;;;5.85;100.00;100961.53;5088237;28;20023;-73
2022/12/03 06:40:05;;;;;;;5.03;3.42;;;;;;;5.84;100.00;100957.28;5088802;28;20119;-72
2022/12/03 06:42:30;;;;;;;4.22;3.05;;;;;;;5.78;100.00;100957.69;5089043;28;20118;-72
2022/12/03 06:44:56;;;;;;;8.35;5.70;;;;;;;5.76;100.00;100960.38;5086568;28;20114;-71
2022/12/03 06:47:21;;;;;;;5.20;3.38;;;;;;;5.72;100.00;100964.09;5087094;28;20039;-72
2022/12/03 06:49:46;;;;;;;6.18;3.78;;;;;;;5.76;100.00;100967.28;5093083;28;20044;-71
2022/12/03 06:52:12;;;;;;;8.77;3.92;;;;;;;5.83;100.00;100971.97;5090867;28;20394;-71
2022/12/03 06:54:37;;;;;;;3.28;2.08;;;;;;;5.97;100.00;100976.25;5090119;28;20082;-72
2022/12/03 06:57:03;;;;;;;3.25;1.95;;;;;;;6.10;100.00;100969.34;5090413;28;20053;-71
2022/12/03 06:59:28;;;;;;;2.67;1.90;;;;;;;6.12;100.00;100970.06;5092191;28;20144;-72
2022/12/03 07:01:54;;;;;;;1.90;1.50;;;;;;;6.29;100.00;100974.91;5092335;28;20038;-71
2022/12/03 07:04:19;;;;;;;2.90;1.70;;;;;;;6.43;100.00;100971.38;5097227;28;20479;-71
2022/12/03 07:06:45;;;;;;;3.50;1.42;;;;;;;6.56;98.82;100979.13;5090473;28;20059;-71
2022/12/03 07:09:10;;;;;;;3.45;2.13;;;;;;;6.60;99.00;100980.56;5092633;28;20035;-72
2022/12/03 07:11:39;;;;;;;2.85;1.90;;;;;;;6.65;96.81;100981.06;5091819;28;20024;-71
2022/12/03 07:14:06;;;;;;;2.90;1.40;;;;;;;6.73;95.91;100978.75;5098309;28;20032;-71
2022/12/03 07:16:35;;;;;;;5.95;1.80;;;;;;;6.75;96.59;100982.06;5090926;28;20034;-72
2022/12/03 07:19:01;;;;;;;6.28;3.03;;;;;;;6.61;99.39;100995.19;5092046;28;20534;-72
2022/12/03 07:21:26;;;;;;;4.15;2.38;;;;;;;6.52;99.20;100980.28;5090853;28;20112;-71
2022/12/03 07:23:52;;;;;;;4.95;3.03;;;;;;;6.56;98.24;100997.25;5091192;28;20051;-71
2022/12/03 07:26:18;;;;;;;6.15;2.97;;;;;;;6.50;99.52;100980.38;5088506;28;20052;-72
2022/12/03 07:28:43;;;;;;;6.80;3.63;;;;;;;6.42;100.00;100984.41;5096179;28;20088;-72
2022/12/03 07:31:08;;;;;;;7.57;4.68;;;;;;;6.32;100.00;100981.63;5094297;28;20036;-71
2022/12/03 07:33:34;;;;;;;8.35;5.57;;;;;;;6.26;100.00;100982.88;5096010;28;20074;-71
2022/12/03 07:35:59;;;;;;;10.25;6.57;;;;;;;6.27;100.00;100983.69;5090732;28;20027;-72
2022/12/03 07:38:25;;;;;;;9.20;6.18;;;;;;;6.21;100.00;100977.19;5088990;28;20020;-71
2022/12/03 07:40:50;;;;;;;11.43;7.32;;;;;;;6.16;100.00;100978.41;5090070;28;20040;-72
2022/12/03 07:43:16;;;;;;;10.05;7.32;;;;;;;6.13;100.00;100978.66;5094740;28;20062;-71
2022/12/03 07:45:41;;;;;;;12.25;7.00;;;;;;;6.19;100.00;100970.44;5089474;28;20067;-71
2022/12/03 07:48:07;;;;;;;7.00;4.20;;;;;;;6.31;100.00;100964.44;5089996;28;20108;-71
2022/12/03 07:50:32;;;;;;;7.28;4.78;;;;;;;6.46;100.00;100965.16;5091695;28;20036;-72
2022/12/03 07:52:58;;;;;;;7.60;4.78;;;;;;;6.50;100.00;100971.78;5098211;28;20435;-72
2022/12/03 07:55:24;;;;;;;9.45;4.93;;;;;;;6.50;100.00;100971.78;5091226;28;20392;-72
2022/12/03 07:57:50;;;;;;;12.95;8.23;;;;;;;6.45;100.00;100981.63;5089689;28;20479;-72
2022/12/03 08:00:16;;;;;;;15.05;9.40;;;;;;;6.42;100.00;100979.25;5089546;28;20032;-72
2022/12/03 08:02:42;;;;;;;16.67;9.48;;;;;;;6.41;100.00;100981.00;5068256;28;20023;-66
2022/12/03 08:05:08;;;;;;;12.07;7.95;;;;;;;6.38;100.00;100976.03;5091248;28;20367;-66
2022/12/03 08:07:33;;;;;;;14.52;7.50;;;;;;;6.45;100.00;100971.28;5087676;28;20077;-66
2022/12/03 08:09:59;;;;;;;11.75;7.05;;;;;;;6.47;100.00;100972.81;5070192;28;20032;-66
2022/12/03 08:12:38;;;;;;;15.88;8.68;;;;;;;6.49;100.00;100970.94;5090837;28;20376;-66
2022/12/03 08:15:26;;;;;;;14.35;7.88;;;;;;;6.53;100.00;100974.16;5093698;28;20071;-66
2022/12/03 08:17:59;;;;;;;11.75;7.60;;;;;;;6.59;100.00;100973.75;5091159;28;20119;-66
2022/12/03 08:20:28;;;;;;;13.32;8.73;;;;;;;6.59;100.00;100971.16;5088926;28;20028;-66
2022/12/03 08:22:54;;;;;;;15.27;8.27;;;;;;;6.59;100.00;100968.56;5091115;28;20038;-66
2022/12/03 08:25:20;;;;;;;11.50;7.82;;;;;;;6.65;100.00;100976.69;5089209;28;20040;-66
2022/12/03 08:27:45;;;;;;;15.38;8.02;;;;;;;6.68;100.00;100970.47;5091507;28;20081;-66
2022/12/03 08:30:13;;;;;;;8.57;5.45;;;;;;;6.78;100.00;100976.69;5089704;28;20086;-66
2022/12/03 08:32:39;;;;;;;9.65;6.20;;;;;;;6.78;100.00;100973.25;5090248;28;20028;-66
2022/12/03 08:35:26;;;;;;;11.18;7.82;;;;;;;6.72;100.00;100977.09;5094472;28;20097;-66
2022/12/03 08:38:08;;;;;;;10.63;6.45;;;;;;;6.64;100.00;100969.88;5089163;28;20035;-66
2022/12/03 08:40:36;;;;;;;11.10;7.03;;;;;;;6.67;100.00;100979.19;5087938;28;20105;-66
2022/12/03 08:43:16;;;;;;;14.15;8.43;;;;;;;6.66;100.00;100980.13;5091835;28;20395;-66
2022/12/03 08:45:41;;;;;;;13.88;9.45;;;;;;;6.69;100.00;100981.66;5083322;28;20024;-67
2022/12/03 08:48:08;;;;;;;16.45;9.23;;;;;;;6.73;100.00;100976.16;5088505;28;20046;-65
2022/12/03 08:50:41;;;;;;;16.75;9.25;;;;;;;6.83;100.00;100977.19;5070325;28;20035;-65
2022/12/03 08:53:12;;;;;;;14.00;8.55;;;;;;;6.90;100.00;100975.81;5088246;28;20159;-63
2022/12/03 08:55:51;;;;;;;13.18;7.82;;;;;;;6.90;100.00;100975.81;5086642;28;20064;-64
2022/12/03 08:58:20;;;;;;;10.88;7.57;;;;;;;6.91;100.00;100981.84;5067150;28;20042;-66
2022/12/03 09:00:46;;;;;;;8.80;5.78;;;;;;;6.91;100.00;100980.06;5093806;28;20483;-66
2022/12/03 09:03:18;;;;;;;5.50;3.58;;;;;;;6.93;100.00;100978.19;5090636;28;20040;-66
2022/12/03 09:05:43;;;;;;;7.13;3.97;;;;;;;7.01;100.00;100969.06;5090170;28;20119;-67
2022/12/03 09:08:08;;;;;;;7.13;4.03;;;;;;;7.08;100.00;100975.47;5090246;28;20111;-66
2022/12/03 09:10:34;;;;;;;6.20;3.90;;;;;;;7.11;100.00;100980.41;5093211;28;20051;-73
2022/12/03 09:12:59;;;;;;;4.82;3.25;;;;;;;7.08;100.00;100973.69;5094816;28;20560;-73
2022/12/03 09:15:25;;;;;;;6.22;4.18;;;;;;;7.08;100.00;100985.81;5088965;28;20040;-72
2022/12/03 09:17:50;;;;;;;7.32;4.80;;;;;;;7.08;100.00;100985.81;5071646;28;20402;-72
2022/12/03 09:20:16;;;;;;;7.93;5.35;;;;;;;7.14;100.00;100985.34;5070404;28;20028;-72
2022/12/03 09:22:41;;;;;;;10.57;6.18;;;;;;;7.24;100.00;100978.59;5089919;28;20042;-72
2022/12/03 09:25:07;;;;;;;12.07;8.13;;;;;;;7.29;100.00;100971.31;5088402;28;20048;-72
2022/12/03 09:27:33;;;;;;;9.00;5.80;;;;;;;7.30;100.00;100978.16;5086675;28;20047;-72
2022/12/03 09:29:58;;;;;;;7.63;5.43;;;;;;;7.22;100.00;100980.47;5094456;28;20480;-72
2022/12/03 09:32:24;;;;;;;6.18;4.82;;;;;;;7.20;100.00;100977.16;5089254;28;20531;-73
2022/12/03 09:34:49;;;;;;;10.30;7.30;;;;;;;7.18;100.00;100976.44;5088013;28;20036;-72
2022/12/03 09:37:15;;;;;;;13.07;7.68;;;;;;;7.16;100.00;100975.72;5083289;28;20059;-73
2022/12/03 09:39:40;;;;;;;10.93;8.13;;;;;;;7.19;100.00;100978.09;5083085;28;20414;-73
2022/12/03 09:42:07;;;;;;;11.15;7.60;;;;;;;7.23;100.00;100974.34;5086402;28;20029;-72
2022/12/03 09:44:33;;;;;;;9.50;6.65;;;;;;;7.28;100.00;100973.06;5070613;28;20036;-73
2022/12/03 09:47:00;;;;;;;9.02;5.22;;;;;;;7.27;100.00;100976.59;5087765;28;20035;-71
2022/12/03 09:49:27;;;;;;;7.75;5.72;;;;;;;7.22;100.00;100983.06;5087754;28;20086;-72
2022/12/03 09:51:56;;;;;;;9.25;5.65;;;;;;;7.25;100.00;100981.06;5088411;28;20028;-72
2022/12/03 09:54:24;;;;;;;7.95;6.00;;;;;;;7.30;100.00;100984.16;5086578;28;20036;-72
2022/12/03 09:56:50;;;;;;;12.13;6.88;;;;;;;7.36;100.00;100982.88;5084093;28;20152;-72
2022/12/03 09:59:16;;;;;;;10.70;7.13;;;;;;;7.35;100.00;100970.88;5088007;28;20024;-71
2022/12/03 10:01:42;;;;;;;10.45;7.15;;;;;;;7.38;100.00;100973.25;5089278;28;20085;-72
2022/12/03 10:04:08;;;;;;;13.45;8.10;;;;;;;7.32;100.00;100973.69;5089044;28;20032;-72
2022/12/03 10:06:34;;;;;;;12.10;7.28;;;;;;;7.31;100.00;100972.84;5087660;28;20024;-72
2022/12/03 10:09:00;;;;;;;11.82;5.63;;;;;;;7.30;100.00;100965.19;5088556;28;20111;-72
2022/12/03 10:11:27;;;;;;;7.97;5.40;;;;;;;7.36;100.00;100963.91;5069129;28;20115;-72
2022/12/03 10:13:55;;;;;;;8.65;5.45;;;;;;;7.38;100.00;100962.88;5088747;28;20024;-72
2022/12/03 10:16:20;;;;;;;6.30;4.32;;;;;;;7.39;100.00;100963.69;5072475;28;20396;-71
2022/12/03 10:18:50;;;;;;;6.72;4.03;;;;;;;7.37;100.00;100963.81;5086579;28;20044;-72
2022/12/03 10:21:24;;;;;;;6.20;4.00;;;;;;;7.32;100.00;100964.13;5084796;28;20020;-70
2022/12/03 10:24:15;;;;;;;5.95;4.25;;;;;;;7.36;100.00;100961.31;5092693;28;20032;-70
2022/12/03 10:26:42;;;;;;;5.03;3.58;;;;;;;7.42;100.00;100956.53;5084086;28;20028;-70
2022/12/03 10:29:12;;;;;;;6.07;3.70;;;;;;;7.39;100.00;100961.09;5087750;28;20048;-70
2022/12/03 10:31:38;;;;;;;5.05;3.75;;;;;;;7.38;100.00;100955.09;5085344;28;20031;-70
2022/12/03 10:34:04;;;;;;;5.30;3.83;;;;;;;7.44;100.00;100957.22;5085273;28;20492;-70
2022/12/03 10:36:29;;;;;;;7.00;4.65;;;;;;;7.49;100.00;100949.94;5086336;28;20042;-72
2022/12/03 10:39:07;;;;;;;7.95;4.90;;;;;;;7.51;100.00;100955.03;5088555;28;20046;-72
2022/12/03 10:41:32;;;;;;;4.88;3.83;;;;;;;7.56;100.00;100950.31;5084103;28;20047;-73
2022/12/03 10:44:29;;;;;;;5.55;3.60;;;;;;;7.49;100.00;100942.16;5087324;28;20090;-73
2022/12/03 10:47:08;;;;;;;4.80;3.50;;;;;;;7.52;100.00;100948.91;5073021;28;20380;-73
2022/12/03 10:49:33;;;;;;;14.98;9.98;;;;;;;7.46;100.00;100942.41;5086371;28;20063;-74
2022/12/03 10:51:59;;;;;;;9.98;6.63;;;;;;;7.40;100.00;100944.59;5091764;28;20074;-73
2022/12/03 10:54:32;;;;;;;2.97;2.20;;;;;;;7.35;100.00;100936.34;5085354;28;20546;-73
2022/12/03 10:56:58;;;;;;;4.80;3.63;;;;;;;7.40;100.00;100937.66;5069103;28;20043;-74
2022/12/03 10:59:28;;;;;;;5.13;3.13;;;;;;;7.41;100.00;100935.91;5094422;28;20031;-69
2022/12/03 11:01:54;;;;;;;2.83;1.52;;;;;;;7.37;100.00;100934.47;5088193;28;20031;-73
2022/12/03 11:04:33;;;;;;;3.03;1.90;;;;;;;7.34;100.00;100938.09;5085700;28;20111;-73
2022/12/03 11:07:01;;;;;;;2.72;2.00;;;;;;;7.35;100.00;100944.13;5084353;28;20482;-73
2022/12/03 11:09:30;;;;;;;3.42;2.35;;;;;;;7.29;100.00;100940.19;5084955;28;20057;-73
2022/12/03 11:12:06;;;;;;;4.53;3.20;;;;;;;7.26;100.00;100940.44;5087049;28;20391;-74
2022/12/03 11:17:40;;;;;;;8.02;5.20;;;;;;;7.23;100.00;100943.25;5087328;28;20040;-73
2022/12/03 11:20:32;;;;;;;5.00;3.85;;;;;;;7.20;100.00;100939.09;5088485;28;20024;-73
2022/12/03 11:22:58;;;;;;;3.70;2.38;;;;;;;7.19;100.00;100932.25;5030522;28;20364;-73
2022/12/03 11:25:23;;;;;;;4.93;1.90;;;;;;;7.16;100.00;100924.72;5023270;28;20045;-73
2022/12/03 11:28:07;;;;;;;3.47;2.10;;;;;;;7.11;100.00;100925.97;5023582;28;20099;-73
2022/12/03 11:30:57;;;;;;;3.95;2.00;;;;;;;7.07;100.00;100915.03;5020943;28;20131;-73
2022/12/03 11:33:33;;;;;;;5.25;3.33;;;;;;;7.04;100.00;100914.44;5013168;28;20045;-73
2022/12/03 11:36:01;;;;;;;12.30;5.38;;;;;;;7.04;100.00;100914.44;5018614;28;20165;-73
2022/12/03 11:38:35;;;;;;;8.05;5.15;;;;;;;7.06;100.00;100908.19;5029919;28;20037;-73
2022/12/03 11:41:16;;;;;;;2.63;1.35;;;;;;;7.07;100.00;100911.63;5029888;28;20041;-73
2022/12/03 11:43:50;;;;;;;3.70;1.10;;;;;;;7.08;100.00;100903.75;5051805;28;20111;-74
2022/12/03 11:46:20;;;;;;;0.90;0.40;;;;;;;7.13;100.00;100900.78;5045546;28;20060;-73
2022/12/03 11:48:48;;;;;;;0.85;0.30;;;;;;;7.21;100.00;100903.66;5053436;28;20044;-73